TimeCET,TemperatureF,Dew PointF,Humidity,Sea Level PressureIn,VisibilityMPH,Wind Direction,Wind SpeedMPH,Gust SpeedMPH,PrecipitationIn,Events,Conditions,WindDirDegrees,DateUTC
6:00 AM,55.4,46.4,72,30.15,-9999.0,Variable,1.2,-,N/A,,Clear,0,2014-01-02 05:00:00
6:30 AM,55.4,48.2,77,30.15,-9999.0,Variable,1.2,-,N/A,,Clear,0,2014-01-02 05:30:00
7:00 AM,55,47,65,30.16,19,West,3.5,,,,Clear,260,2014-01-02 06:00:00
7:00 AM,55.4,46.4,72,30.15,-9999.0,West,3.5,-,N/A,,Clear,260,2014-01-02 06:00:00
7:30 AM,53.6,46.4,77,30.15,-9999.0,NW,2.3,-,N/A,,Clear,320,2014-01-02 06:30:00
8:00 AM,53.6,44.6,72,30.15,-9999.0,SW,1.2,-,N/A,,Clear,230,2014-01-02 07:00:00
8:30 AM,53.6,44.6,72,30.15,-9999.0,Calm,Calm,-,N/A,,Clear,0,2014-01-02 07:30:00
9:00 AM,53.6,44.6,72,30.15,-9999.0,Calm,Calm,-,N/A,,Clear,0,2014-01-02 08:00:00
9:30 AM,53.6,44.6,72,30.15,-9999.0,Calm,Calm,-,N/A,,Clear,0,2014-01-02 08:30:00
10:00 AM,55,44,58,30.17,31,SW,3.5,,,,Overcast,230,2014-01-02 09:00:00
10:00 AM,55.4,42.8,63,30.15,-9999.0,SW,2.3,-,N/A,,Clear,230,2014-01-02 09:00:00
10:30 AM,57.2,46.4,67,30.18,-9999.0,Variable,1.2,-,N/A,,Clear,0,2014-01-02 09:30:00
11:00 AM,60.8,46.4,59,30.18,-9999.0,Calm,Calm,-,N/A,,Clear,0,2014-01-02 10:00:00
11:30 AM,62.6,41.0,45,30.18,-9999.0,Calm,Calm,-,N/A,,Clear,0,2014-01-02 10:30:00
12:00 PM,64.4,42.8,45,30.18,-9999.0,Variable,1.2,-,N/A,,Clear,0,2014-01-02 11:00:00
12:30 PM,68.0,33.8,28,30.15,-9999.0,WNW,3.5,-,N/A,,Clear,300,2014-01-02 11:30:00
1:00 PM,66,41,29,30.15,25,East,4.6,,,,Mostly Cloudy,80,2014-01-02 12:00:00
1:00 PM,66.2,37.4,35,30.15,-9999.0,East,4.6,-,N/A,,Clear,80,2014-01-02 12:00:00
1:30 PM,64.4,33.8,32,30.15,-9999.0,NE,2.3,-,N/A,,Clear,50,2014-01-02 12:30:00
2:00 PM,64.4,33.8,32,30.15,-9999.0,Variable,1.2,-,N/A,,Clear,0,2014-01-02 13:00:00
2:30 PM,66.2,32.0,28,30.15,-9999.0,NE,1.2,-,N/A,,Clear,40,2014-01-02 13:30:00
3:00 PM,66.2,32.0,28,30.15,-9999.0,Variable,1.2,-,N/A,,Clear,0,2014-01-02 14:00:00
3:30 PM,64.4,32.0,30,30.15,-9999.0,Variable,2.3,-,N/A,,Clear,0,2014-01-02 14:30:00
4:00 PM,65,39,26,30.16,31,SSE,2.3,,,,Mostly Cloudy,160,2014-01-02 15:00:00
4:00 PM,66.2,32.0,28,30.15,-9999.0,SSE,2.3,-,N/A,,Clear,150,2014-01-02 15:00:00
4:30 PM,66.2,33.8,30,30.15,-9999.0,Calm,Calm,-,N/A,,Clear,0,2014-01-02 15:30:00
5:00 PM,64.4,33.8,32,30.15,-9999.0,Variable,1.2,-,N/A,,Clear,0,2014-01-02 16:00:00
5:30 PM,62.6,39.2,42,30.15,-9999.0,Calm,Calm,-,N/A,,Clear,0,2014-01-02 16:30:00
6:00 PM,62.6,35.6,37,30.15,-9999.0,WNW,3.5,-,N/A,,Clear,290,2014-01-02 17:00:00
6:30 PM,62.6,37.4,39,30.18,-9999.0,Variable,2.3,-,N/A,,Clear,0,2014-01-02 17:30:00
7:00 PM,62,38,30,30.18,25,West,3.5,,,,Mostly Cloudy,280,2014-01-02 18:00:00
7:00 PM,62.6,33.8,34,30.18,-9999.0,West,3.5,-,N/A,,Clear,280,2014-01-02 18:00:00
7:30 PM,62.6,37.4,39,30.18,-9999.0,West,3.5,-,N/A,,Clear,260,2014-01-02 18:30:00
10:00 PM,60,42,39,30.20,19,Calm,Calm,,,,Mostly Cloudy,,2014-01-02 21:00:00